createdAt,value
2022-07-30T00:00:13.133Z,91.00
2022-07-30T00:02:51.629Z,91.20
2022-07-30T00:05:18.507Z,91.20
2022-07-30T00:07:45.282Z,91.40
2022-07-30T00:10:12.064Z,91.50
2022-07-30T00:12:39.516Z,91.80
2022-07-30T00:15:06.946Z,91.90
2022-07-30T00:17:33.713Z,91.90
2022-07-30T00:20:00.581Z,92.20
2022-07-30T00:22:30.937Z,92.20
2022-07-30T00:24:57.780Z,92.40
2022-07-30T00:27:24.637Z,92.60
2022-07-30T00:29:51.443Z,92.80
2022-07-30T00:32:18.242Z,93.00
2022-07-30T00:34:45.057Z,93.20
2022-07-30T00:37:11.818Z,93.30
2022-07-30T00:39:38.589Z,93.60
2022-07-30T00:42:05.476Z,93.70
2022-07-30T00:44:32.321Z,93.60
2022-07-30T00:46:59.583Z,93.80
2022-07-30T00:49:26.972Z,94.10
2022-07-30T00:51:53.986Z,94.30
2022-07-30T00:54:21.943Z,94.40
2022-07-30T00:56:49.075Z,94.30
2022-07-30T00:59:16.321Z,94.50
2022-07-30T01:01:43.352Z,94.80
2022-07-30T01:04:11.892Z,94.80
2022-07-30T01:06:39.932Z,95.10
2022-07-30T01:09:07.798Z,94.80
2022-07-30T01:11:38.258Z,95.00
2022-07-30T01:14:09.382Z,95.50
2022-07-30T01:16:38.036Z,95.70
2022-07-30T01:19:30.151Z,96.10
2022-07-30T01:22:24.697Z,96.50
2022-07-30T01:25:04.374Z,96.70
2022-07-30T01:27:44.271Z,96.90
2022-07-30T01:30:13.022Z,97.10
2022-07-30T01:32:44.183Z,97.10
2022-07-30T01:35:13.036Z,97.40
2022-07-30T01:37:40.961Z,97.60
2022-07-30T01:40:08.949Z,97.50
2022-07-30T01:42:38.375Z,97.40
2022-07-30T01:45:07.293Z,97.60
2022-07-30T01:47:35.650Z,97.40
2022-07-30T01:50:04.689Z,97.30
2022-07-30T01:52:33.907Z,97.40
2022-07-30T01:55:02.216Z,97.30
2022-07-30T01:57:30.871Z,97.30
2022-07-30T02:00:01.857Z,97.40
2022-07-30T02:02:28.708Z,97.60
2022-07-30T02:04:55.588Z,97.60
2022-07-30T02:07:35.259Z,97.40
2022-07-30T02:10:07.744Z,97.10
2022-07-30T02:12:39.378Z,97.40
2022-07-30T02:15:23.847Z,97.40
2022-07-30T02:18:00.329Z,97.30
2022-07-30T02:20:30.287Z,97.40
2022-07-30T02:23:02.637Z,97.20
2022-07-30T02:25:32.337Z,97.40
2022-07-30T02:28:05.901Z,97.30
2022-07-30T02:30:36.195Z,97.70
2022-07-30T02:33:08.295Z,97.90
2022-07-30T02:35:36.960Z,98.00
2022-07-30T02:38:05.590Z,98.00
2022-07-30T02:40:32.960Z,97.80
2022-07-30T02:43:00.779Z,98.00
2022-07-30T02:45:29.288Z,97.90
2022-07-30T02:48:01.479Z,98.00
2022-07-30T02:50:29.147Z,98.00
2022-07-30T02:52:59.352Z,98.00
2022-07-30T02:55:28.388Z,98.10
2022-07-30T02:57:56.447Z,97.70
2022-07-30T03:00:24.898Z,98.00
2022-07-30T03:02:56.747Z,97.40
2022-07-30T03:05:25.737Z,97.90
2022-07-30T03:07:55.172Z,97.80
2022-07-30T03:10:22.716Z,98.00
2022-07-30T03:12:51.466Z,98.00
2022-07-30T03:15:18.385Z,98.00
2022-07-30T03:17:48.924Z,97.90
2022-07-30T03:20:19.073Z,97.60
2022-07-30T03:22:51.421Z,97.80
2022-07-30T03:25:23.078Z,97.70
2022-07-30T03:27:51.381Z,97.50
2022-07-30T03:30:18.963Z,97.60
2022-07-30T03:32:46.735Z,97.60
2022-07-30T03:35:17.154Z,97.50
2022-07-30T03:37:48.532Z,97.40
2022-07-30T03:40:15.856Z,97.00
2022-07-30T03:42:43.216Z,96.80
2022-07-30T03:45:10.921Z,96.70
2022-07-30T03:47:39.478Z,96.80
2022-07-30T03:50:06.852Z,96.90
2022-07-30T03:52:41.321Z,96.80
2022-07-30T03:55:10.154Z,96.70
2022-07-30T03:57:37.136Z,96.50
2022-07-30T04:00:13.012Z,96.10
2022-07-30T04:02:47.195Z,95.70
2022-07-30T04:05:15.259Z,95.50
2022-07-30T04:07:45.271Z,95.50
2022-07-30T04:10:13.800Z,95.40
2022-07-30T04:12:40.785Z,95.30
2022-07-30T04:16:05.635Z,95.00
2022-07-30T04:18:01.373Z,94.80
2022-07-30T04:20:34.593Z,94.50
2022-07-30T04:23:02.719Z,94.40
2022-07-30T04:25:30.489Z,94.30
2022-07-30T04:27:58.459Z,94.10
2022-07-30T04:30:31.478Z,94.10
2022-07-30T04:32:58.324Z,94.00
2022-07-30T04:35:51.697Z,94.10
2022-07-30T04:38:20.000Z,93.50
2022-07-30T04:40:47.400Z,93.70
2022-07-30T04:43:15.006Z,93.70
2022-07-30T04:45:43.644Z,93.40
2022-07-30T04:48:10.505Z,92.90
2022-07-30T04:50:43.211Z,93.20
2022-07-30T04:53:11.254Z,93.00
2022-07-30T04:55:43.051Z,92.90
2022-07-30T04:58:12.173Z,92.90
2022-07-30T05:00:41.365Z,93.00
2022-07-30T05:03:12.519Z,92.70
2022-07-30T05:05:40.907Z,92.40
2022-07-30T05:08:07.957Z,92.30
2022-07-30T05:10:34.862Z,92.20
2022-07-30T05:13:01.636Z,92.40
2022-07-30T05:15:36.308Z,91.80
2022-07-30T05:18:05.788Z,91.70
2022-07-30T05:20:32.598Z,91.20
2022-07-30T05:22:59.671Z,91.20
2022-07-30T05:25:26.503Z,90.90
2022-07-30T05:27:53.908Z,90.40
2022-07-30T05:30:26.148Z,90.50
2022-07-30T05:32:54.905Z,90.60
2022-07-30T05:35:23.381Z,89.90
2022-07-30T05:37:50.188Z,89.40
2022-07-30T05:40:17.192Z,88.90
2022-07-30T05:42:43.981Z,88.60
2022-07-30T05:45:11.128Z,88.10
2022-07-30T05:47:37.893Z,85.80
2022-07-30T05:50:05.551Z,84.10
2022-07-30T05:52:33.728Z,81.60
2022-07-30T05:55:00.626Z,80.20
2022-07-30T05:57:27.514Z,79.70
2022-07-30T05:59:54.338Z,78.50
2022-07-30T06:02:24.250Z,76.80
2022-07-30T06:04:51.692Z,76.50
2022-07-30T06:07:18.555Z,75.10
2022-07-30T06:09:45.412Z,75.40
2022-07-30T06:12:12.234Z,74.20
2022-07-30T06:14:38.993Z,73.80
2022-07-30T06:17:05.910Z,73.70
2022-07-30T06:19:32.859Z,74.30
2022-07-30T06:22:01.778Z,74.30
2022-07-30T06:24:34.205Z,73.30
2022-07-30T06:27:01.275Z,73.20
2022-07-30T06:29:28.255Z,72.80
2022-07-30T06:31:55.160Z,71.90
2022-07-30T06:34:22.023Z,71.70
2022-07-30T06:36:49.667Z,70.70
2022-07-30T06:39:55.956Z,69.80
2022-07-30T06:42:04.282Z,69.10
2022-07-30T06:44:31.169Z,69.30
2022-07-30T06:46:58.320Z,68.80
2022-07-30T06:49:25.833Z,68.10
2022-07-30T06:51:52.762Z,68.40
2022-07-30T06:54:20.206Z,67.80
2022-07-30T06:56:47.012Z,67.60
2022-07-30T06:59:13.943Z,66.80
2022-07-30T07:01:41.081Z,65.20
2022-07-30T07:04:08.103Z,64.70
2022-07-30T07:06:34.950Z,64.60
2022-07-30T07:09:01.905Z,64.10
2022-07-30T07:11:28.723Z,63.60
2022-07-30T07:13:55.542Z,63.30
2022-07-30T07:16:25.337Z,63.20
2022-07-30T07:18:53.994Z,63.40
2022-07-30T07:21:20.892Z,63.20
2022-07-30T07:23:50.805Z,63.20
2022-07-30T07:26:17.860Z,63.00
2022-07-30T07:28:44.711Z,63.10
2022-07-30T07:31:11.718Z,62.90
2022-07-30T07:33:58.535Z,62.80
2022-07-30T07:36:25.325Z,61.90
2022-07-30T07:38:52.194Z,62.90
2022-07-30T07:41:19.042Z,62.50
2022-07-30T07:43:45.822Z,62.70
2022-07-30T07:46:16.514Z,61.90
2022-07-30T07:48:59.975Z,62.40
2022-07-30T07:51:47.253Z,62.40
2022-07-30T07:54:21.572Z,62.60
2022-07-30T07:56:51.602Z,63.10
2022-07-30T07:59:19.972Z,62.70
2022-07-30T08:01:47.329Z,62.70
2022-07-30T08:04:17.210Z,62.70
2022-07-30T08:06:44.109Z,63.50
2022-07-30T08:09:10.921Z,63.40
2022-07-30T08:11:37.735Z,63.10
2022-07-30T08:14:04.561Z,63.50
2022-07-30T08:16:31.442Z,63.40
2022-07-30T08:18:58.300Z,63.40
2022-07-30T08:21:25.092Z,63.20
2022-07-30T08:23:51.934Z,62.70
2022-07-30T08:26:18.735Z,63.20
2022-07-30T08:28:45.838Z,63.10
2022-07-30T08:31:13.043Z,63.20
2022-07-30T08:33:40.003Z,63.90
2022-07-30T08:36:09.469Z,63.70
2022-07-30T08:38:37.392Z,63.20
2022-07-30T08:41:04.244Z,63.40
2022-07-30T08:43:31.660Z,63.40
2022-07-30T08:46:00.520Z,63.30
2022-07-30T08:48:28.488Z,62.80
2022-07-30T08:50:55.647Z,62.40
2022-07-30T08:53:23.635Z,62.30
2022-07-30T08:55:50.662Z,62.50
2022-07-30T08:58:30.776Z,62.40
2022-07-30T09:00:58.205Z,62.90
2022-07-30T09:03:25.091Z,63.20
2022-07-30T09:05:52.014Z,63.80
2022-07-30T09:08:19.894Z,64.10
2022-07-30T09:10:53.220Z,64.00
2022-07-30T09:13:25.901Z,64.20
2022-07-30T09:15:53.145Z,64.30
2022-07-30T09:18:34.923Z,64.30
2022-07-30T09:21:23.422Z,63.70
2022-07-30T09:24:06.379Z,63.20
2022-07-30T09:26:59.308Z,63.20
2022-07-30T09:29:29.817Z,63.40
2022-07-30T09:32:02.949Z,63.90
2022-07-30T09:34:37.695Z,63.50
2022-07-30T09:37:10.867Z,63.40
2022-07-30T09:39:41.556Z,63.60
2022-07-30T09:42:26.073Z,63.70
2022-07-30T09:45:05.079Z,64.00
2022-07-30T09:47:33.938Z,64.90
2022-07-30T09:50:09.576Z,65.60
2022-07-30T09:52:43.999Z,65.90
2022-07-30T09:55:33.669Z,66.30
2022-07-30T09:58:05.724Z,67.10
2022-07-30T10:00:37.252Z,67.00
2022-07-30T10:03:21.846Z,67.40
2022-07-30T10:06:03.184Z,67.30
2022-07-30T10:08:40.848Z,65.80
2022-07-30T10:11:11.915Z,65.50
2022-07-30T10:13:43.902Z,64.80
2022-07-30T10:16:13.246Z,65.40
2022-07-30T10:18:42.597Z,65.70
2022-07-30T10:21:12.889Z,65.10
2022-07-30T10:23:45.075Z,65.30
2022-07-30T10:26:13.192Z,65.60
2022-07-30T10:28:44.772Z,65.00
2022-07-30T10:31:48.915Z,64.60
2022-07-30T10:33:59.494Z,64.60
2022-07-30T10:36:28.030Z,64.80
2022-07-30T10:38:55.674Z,65.20
2022-07-30T10:42:02.288Z,65.70
2022-07-30T10:45:18.021Z,65.60
2022-07-30T10:47:48.765Z,66.40
2022-07-30T10:50:26.550Z,66.40
2022-07-30T10:52:55.968Z,66.50
2022-07-30T10:55:36.695Z,65.60
2022-07-30T10:58:07.259Z,66.10
2022-07-30T11:00:54.535Z,65.40
2022-07-30T11:03:41.126Z,65.40
2022-07-30T11:06:24.285Z,64.50
2022-07-30T11:08:52.180Z,64.50
2022-07-30T11:11:59.118Z,64.30
2022-07-30T11:14:12.923Z,64.80
2022-07-30T11:16:39.841Z,64.80
2022-07-30T11:19:56.466Z,65.10
2022-07-30T11:22:24.642Z,65.20
2022-07-30T11:24:52.396Z,64.90
2022-07-30T11:27:41.452Z,64.70
2022-07-30T11:30:18.088Z,65.10
2022-07-30T11:32:56.519Z,65.40
2022-07-30T11:35:25.242Z,65.50
2022-07-30T11:38:22.485Z,65.00
2022-07-30T11:40:49.340Z,64.60
2022-07-30T11:43:34.841Z,64.40
2022-07-30T11:46:16.282Z,64.20
2022-07-30T11:48:59.090Z,64.50
2022-07-30T11:51:26.606Z,65.10
2022-07-30T11:54:05.532Z,65.60
2022-07-30T11:56:34.249Z,65.10
2022-07-30T11:59:05.955Z,64.40
2022-07-30T12:01:36.310Z,64.50
2022-07-30T12:04:04.992Z,64.90
2022-07-30T12:06:32.353Z,65.30
2022-07-30T12:08:59.771Z,66.00
2022-07-30T12:11:33.168Z,66.00
2022-07-30T12:14:02.056Z,66.50
2022-07-30T12:16:30.913Z,66.20
2022-07-30T12:19:05.516Z,65.70
2022-07-30T12:21:33.096Z,66.00
2022-07-30T12:24:02.701Z,65.50
2022-07-30T12:26:31.297Z,65.10
2022-07-30T12:29:01.827Z,64.60
2022-07-30T12:31:29.286Z,64.00
2022-07-30T12:34:00.455Z,63.40
2022-07-30T12:36:32.673Z,63.70
2022-07-30T12:39:00.837Z,64.10
2022-07-30T12:41:56.971Z,65.10
2022-07-30T12:44:40.157Z,65.50
2022-07-30T12:47:23.784Z,65.40
2022-07-30T12:49:53.402Z,65.90
2022-07-30T12:52:28.527Z,66.00
2022-07-30T12:55:01.974Z,66.50
2022-07-30T12:57:50.421Z,66.20
2022-07-30T13:00:17.485Z,66.00
2022-07-30T13:02:44.358Z,65.50
2022-07-30T13:05:12.139Z,65.60
2022-07-30T13:07:59.488Z,66.00
2022-07-30T13:10:31.103Z,65.80
2022-07-30T13:12:59.132Z,66.10
2022-07-30T13:15:26.463Z,66.20
2022-07-30T13:17:53.316Z,66.80
2022-07-30T13:20:20.978Z,67.30
2022-07-30T13:22:47.764Z,67.00
2022-07-30T13:25:14.587Z,67.00
2022-07-30T13:27:41.375Z,67.60
2022-07-30T13:30:08.966Z,68.00
2022-07-30T13:32:35.805Z,68.00
2022-07-30T13:35:03.122Z,68.00
2022-07-30T13:37:37.658Z,67.80
2022-07-30T13:40:06.941Z,67.80
2022-07-30T13:42:33.842Z,67.80
2022-07-30T13:45:01.051Z,67.80
2022-07-30T13:47:27.919Z,67.80
2022-07-30T13:49:54.857Z,67.30
2022-07-30T13:52:21.647Z,66.50
2022-07-30T13:54:50.762Z,66.40
2022-07-30T13:57:17.657Z,65.80
2022-07-30T13:59:44.488Z,66.00
2022-07-30T14:02:11.502Z,66.40
2022-07-30T14:04:38.310Z,66.50
2022-07-30T14:07:05.340Z,66.50
2022-07-30T14:09:33.088Z,66.50
2022-07-30T14:12:11.414Z,66.50
2022-07-30T14:14:38.449Z,66.40
2022-07-30T14:17:05.330Z,66.80
2022-07-30T14:19:32.446Z,66.60
2022-07-30T14:21:59.262Z,66.50
2022-07-30T14:24:26.057Z,66.60
2022-07-30T14:26:57.673Z,66.90
2022-07-30T14:29:26.140Z,67.00
2022-07-30T14:31:53.373Z,66.70
2022-07-30T14:34:20.153Z,66.70
2022-07-30T14:36:46.985Z,67.40
2022-07-30T14:39:13.876Z,67.10
2022-07-30T14:41:40.729Z,68.20
2022-07-30T14:44:12.126Z,68.10
2022-07-30T14:46:52.508Z,67.60
2022-07-30T14:49:20.317Z,67.50
2022-07-30T14:51:47.496Z,67.70
2022-07-30T14:54:14.497Z,67.60
2022-07-30T14:56:41.868Z,67.40
2022-07-30T14:59:08.839Z,67.50
2022-07-30T15:01:35.883Z,68.00
2022-07-30T15:04:02.871Z,68.40
2022-07-30T15:06:29.945Z,68.50
2022-07-30T15:08:56.898Z,67.80
2022-07-30T15:11:24.423Z,68.20
2022-07-30T15:13:52.620Z,68.10
2022-07-30T15:16:20.191Z,67.90
2022-07-30T15:18:47.116Z,68.50
2022-07-30T15:21:14.779Z,68.20
2022-07-30T15:23:41.930Z,68.50
2022-07-30T15:26:08.818Z,68.70
2022-07-30T15:28:35.624Z,68.70
2022-07-30T15:31:03.431Z,68.60
2022-07-30T15:33:30.538Z,68.40
2022-07-30T15:36:03.231Z,68.50
2022-07-30T15:38:29.995Z,68.70
2022-07-30T15:40:56.790Z,68.90
2022-07-30T15:43:23.584Z,69.50
2022-07-30T15:45:55.597Z,69.70
2022-07-30T15:48:27.766Z,69.20
2022-07-30T15:51:01.934Z,69.10
2022-07-30T15:53:30.300Z,69.20
2022-07-30T15:55:58.347Z,69.00
2022-07-30T15:58:25.360Z,69.50
2022-07-30T16:00:52.451Z,69.80
2022-07-30T16:03:19.560Z,69.90
2022-07-30T16:05:52.027Z,70.20
2022-07-30T16:08:20.666Z,70.80
2022-07-30T16:10:48.196Z,71.40
2022-07-30T16:13:15.236Z,71.40
2022-07-30T16:15:42.076Z,71.40
2022-07-30T16:18:08.931Z,71.40
2022-07-30T16:20:35.771Z,71.80
2022-07-30T16:23:02.635Z,72.30
2022-07-30T16:25:29.478Z,72.80
2022-07-30T16:27:57.682Z,72.90
2022-07-30T16:30:27.459Z,74.00
2022-07-30T16:32:56.429Z,73.40
2022-07-30T16:35:23.405Z,73.90
2022-07-30T16:37:50.242Z,73.80
2022-07-30T16:40:17.077Z,74.00
2022-07-30T16:42:43.885Z,74.00
2022-07-30T16:45:11.194Z,74.40
2022-07-30T16:47:38.090Z,74.70
2022-07-30T16:50:05.407Z,74.90
2022-07-30T16:52:32.255Z,74.00
2022-07-30T16:54:59.019Z,74.80
2022-07-30T16:57:25.764Z,74.60
2022-07-30T16:59:52.694Z,74.30
2022-07-30T17:02:19.477Z,74.40
2022-07-30T17:04:46.244Z,74.30
2022-07-30T17:07:13.502Z,74.50
2022-07-30T17:09:40.618Z,74.70
2022-07-30T17:12:12.209Z,74.70
2022-07-30T17:14:41.287Z,74.70
2022-07-30T17:17:13.720Z,74.80
2022-07-30T17:19:41.743Z,74.80
2022-07-30T17:22:08.631Z,75.00
2022-07-30T17:24:35.594Z,75.20
2022-07-30T17:27:02.693Z,75.30
2022-07-30T17:29:29.778Z,75.60
2022-07-30T17:31:56.640Z,76.00
2022-07-30T17:34:23.773Z,76.50
2022-07-30T17:36:52.045Z,76.70
2022-07-30T17:40:06.004Z,77.20
2022-07-30T17:42:09.925Z,77.20
2022-07-30T17:44:37.089Z,77.40
2022-07-30T17:47:03.945Z,77.90
2022-07-30T17:49:30.892Z,78.30
2022-07-30T17:51:57.691Z,78.60
2022-07-30T17:54:24.669Z,78.80
2022-07-30T17:56:51.714Z,79.00
2022-07-30T17:59:18.596Z,79.30
2022-07-30T18:01:45.922Z,79.50
2022-07-30T18:04:12.802Z,79.60
2022-07-30T18:06:39.662Z,79.70
2022-07-30T18:09:06.667Z,79.90
2022-07-30T18:11:33.681Z,80.10
2022-07-30T18:14:00.496Z,80.20
2022-07-30T18:16:27.442Z,80.50
2022-07-30T18:18:54.662Z,80.80
2022-07-30T18:21:21.495Z,80.90
2022-07-30T18:23:48.354Z,81.30
2022-07-30T18:26:15.641Z,81.60
2022-07-30T18:28:42.515Z,82.00
2022-07-30T18:31:09.407Z,82.10
2022-07-30T18:33:36.373Z,82.60
2022-07-30T18:36:03.371Z,82.90
2022-07-30T18:38:30.254Z,83.00
2022-07-30T18:40:59.799Z,83.30
2022-07-30T18:43:27.841Z,83.30
2022-07-30T18:45:55.025Z,83.80
2022-07-30T18:48:21.970Z,84.40
2022-07-30T18:50:48.929Z,84.90
2022-07-30T18:53:16.014Z,85.20
2022-07-30T18:55:43.696Z,85.90
2022-07-30T18:58:10.968Z,86.20
2022-07-30T19:00:39.619Z,86.60
2022-07-30T19:03:17.469Z,86.90
2022-07-30T19:05:45.811Z,87.30
2022-07-30T19:08:12.940Z,87.60
2022-07-30T19:10:40.120Z,87.80
2022-07-30T19:13:07.242Z,88.10
2022-07-30T19:15:34.263Z,88.10
2022-07-30T19:18:01.595Z,88.20
2022-07-30T19:20:28.485Z,88.30
2022-07-30T19:23:05.904Z,88.50
2022-07-30T19:25:34.211Z,88.50
2022-07-30T19:28:02.381Z,88.90
2022-07-30T19:30:30.115Z,89.20
2022-07-30T19:33:12.478Z,89.40
2022-07-30T19:35:41.898Z,89.60
2022-07-30T19:38:09.864Z,89.80
2022-07-30T19:40:39.577Z,90.00
2022-07-30T19:43:09.522Z,90.20
2022-07-30T19:45:46.791Z,90.30
2022-07-30T19:48:28.509Z,90.20
2022-07-30T19:50:55.941Z,90.30
2022-07-30T19:53:22.839Z,90.10
2022-07-30T19:55:50.938Z,90.20
2022-07-30T19:58:17.949Z,90.00
2022-07-30T20:00:49.712Z,90.20
2022-07-30T20:06:08.972Z,90.40
2022-07-30T20:08:44.600Z,90.50
2022-07-30T20:11:20.836Z,90.60
2022-07-30T20:13:48.273Z,90.70
2022-07-30T20:16:16.506Z,90.80
2022-07-30T20:18:46.033Z,90.90
2022-07-30T20:21:15.856Z,90.90
2022-07-30T20:23:44.965Z,91.10
2022-07-30T20:26:14.269Z,91.20
2022-07-30T20:28:43.858Z,91.30
2022-07-30T20:31:12.853Z,91.40
2022-07-30T20:33:40.094Z,91.60
2022-07-30T20:36:10.043Z,91.70
2022-07-30T20:38:39.053Z,91.80
2022-07-30T20:41:10.109Z,91.90
2022-07-30T20:43:51.611Z,92.00
2022-07-30T20:46:19.846Z,92.30
2022-07-30T20:48:46.845Z,92.50
2022-07-30T20:51:14.040Z,92.70
2022-07-30T20:53:45.368Z,92.70
2022-07-30T20:56:13.313Z,93.00
2022-07-30T20:58:40.778Z,93.00
2022-07-30T21:01:07.875Z,93.20
2022-07-30T21:03:35.905Z,93.40
2022-07-30T21:06:03.194Z,93.60
2022-07-30T21:08:31.760Z,93.50
2022-07-30T21:11:00.199Z,93.60
2022-07-30T21:13:27.534Z,93.60
2022-07-30T21:16:02.428Z,93.80
2022-07-30T21:18:30.579Z,93.90
2022-07-30T21:20:57.758Z,94.10
2022-07-30T21:23:25.127Z,94.20
2022-07-30T21:26:02.149Z,94.20
2022-07-30T21:28:35.514Z,94.50
2022-07-30T21:31:07.506Z,94.60
2022-07-30T21:33:36.434Z,94.80
2022-07-30T21:36:03.797Z,94.90
2022-07-30T21:38:31.954Z,95.10
2022-07-30T21:41:01.091Z,95.30
2022-07-30T21:43:30.596Z,95.60
2022-07-30T21:46:03.602Z,95.60
2022-07-30T21:48:30.703Z,95.70
2022-07-30T21:50:58.551Z,95.70
2022-07-30T21:53:29.684Z,95.80
2022-07-30T21:56:12.921Z,96.10
2022-07-30T21:58:40.131Z,96.30
2022-07-30T22:01:16.723Z,96.30
2022-07-30T22:04:04.413Z,96.20
2022-07-30T22:06:32.439Z,96.40
2022-07-30T22:09:00.068Z,96.30
2022-07-30T22:11:42.407Z,96.30
2022-07-30T22:14:10.427Z,96.20
2022-07-30T22:16:38.242Z,96.50
2022-07-30T22:19:12.695Z,96.60
2022-07-30T22:21:41.717Z,96.80
2022-07-30T22:24:08.675Z,96.30
2022-07-30T22:26:35.516Z,95.80
2022-07-30T22:29:02.495Z,95.70
2022-07-30T22:31:39.277Z,95.50
2022-07-30T22:34:11.604Z,95.70
2022-07-30T22:36:45.580Z,95.70
2022-07-30T22:39:12.846Z,95.80
2022-07-30T22:41:39.625Z,95.90
2022-07-30T22:44:12.218Z,95.70
2022-07-30T22:46:39.909Z,95.80
2022-07-30T22:49:23.785Z,96.10
2022-07-30T22:52:05.147Z,96.20
2022-07-30T22:54:37.287Z,96.30
2022-07-30T22:57:04.329Z,95.90
2022-07-30T23:00:00.030Z,95.90
2022-07-30T23:02:18.049Z,95.80
2022-07-30T23:04:44.846Z,95.70
2022-07-30T23:07:13.997Z,95.60
2022-07-30T23:09:51.663Z,95.20
2022-07-30T23:12:17.269Z,90.30
2022-07-30T23:12:20.230Z,95.10
2022-07-30T23:14:47.922Z,94.60
2022-07-30T23:17:15.061Z,95.30
2022-07-30T23:19:41.825Z,95.00
2022-07-30T23:22:08.678Z,95.00
2022-07-30T23:24:35.727Z,95.00
2022-07-30T23:27:03.098Z,95.00
2022-07-30T23:29:30.105Z,94.80
2022-07-30T23:31:57.540Z,94.70
2022-07-30T23:34:24.318Z,94.80
2022-07-30T23:36:52.030Z,94.80
2022-07-30T23:39:19.636Z,94.70
2022-07-30T23:41:46.963Z,94.60
2022-07-30T23:44:13.741Z,94.30
2022-07-30T23:46:40.810Z,94.40
2022-07-30T23:49:07.709Z,94.20
2022-07-30T23:51:34.650Z,94.10
2022-07-30T23:54:02.017Z,94.10
2022-07-30T23:56:28.926Z,94.10
2022-07-30T23:58:56.307Z,94.20
